Time;durP1;ratioP1;P1;durP2;ratioP2;P2;SDS_P1;SDS_P2;PMS_P1;PMS_P2;Temp;Humidity;BMP_temperature;BMP_pressure;BME280_temperature;BME280_humidity;BME280_pressure;Samples;Min_cycle;Max_cycle;Signal;HPM_P1;HPM_P2
2023/01/17 00:00:52;;;;;;;29.40;15.00;;;;;;;1.23;96.57;97381.42;109574;1253;67636;-72
2023/01/17 00:10:18;;;;;;;32.10;15.60;;;;;;;1.30;96.44;97373.02;109553;1253;58697;-71
2023/01/17 00:13:06;;;;;;;32.10;14.40;;;;;;;1.30;96.77;97366.17;109463;1255;72809;-71
2023/01/17 00:15:54;;;;;;;30.10;14.30;;;;;;;1.30;96.92;97367.04;109540;1253;68045;-72
2023/01/17 00:26:01;;;;;;;27.30;13.70;;;;;;;1.33;96.88;97368.15;109518;1257;72309;-72
2023/01/17 01:34:38;;;;;;;32.80;14.20;;;;;;;1.45;100.00;97247.53;109537;1253;71139;-71
2023/01/17 01:37:26;;;;;;;30.80;14.90;;;;;;;1.45;100.00;97253.98;109515;1253;58556;-71
2023/01/17 01:40:16;;;;;;;27.60;13.30;;;;;;;1.45;100.00;97241.38;109559;1253;58794;-72
2023/01/17 01:43:05;;;;;;;27.60;12.50;;;;;;;1.50;100.00;97235.20;109566;1253;72752;-73
2023/01/17 01:45:57;;;;;;;31.80;15.60;;;;;;;1.52;100.00;97233.05;109539;1253;66638;-72
2023/01/17 01:49:00;;;;;;;30.60;14.70;;;;;;;1.55;100.00;97231.27;109598;1253;72456;-72
2023/01/17 01:51:54;;;;;;;32.00;14.00;;;;;;;1.54;100.00;97223.00;109478;1252;58877;-71
2023/01/17 01:54:49;;;;;;;29.90;13.70;;;;;;;1.53;100.00;97207.14;109569;1252;61213;-72
2023/01/17 01:57:43;;;;;;;31.60;14.10;;;;;;;1.53;100.00;97205.08;109627;1254;72112;-78
2023/01/17 02:00:36;;;;;;;32.60;14.20;;;;;;;1.52;100.00;97187.49;109604;1253;66798;-71
2023/01/17 02:03:31;;;;;;;31.80;14.40;;;;;;;1.52;100.00;97180.70;109510;1252;70192;-72
2023/01/17 02:06:28;;;;;;;26.30;11.70;;;;;;;1.51;100.00;97170.29;109539;1252;58974;-73
2023/01/17 02:09:17;;;;;;;27.40;13.10;;;;;;;1.54;100.00;97162.69;109637;1253;60114;-71
2023/01/17 02:12:06;;;;;;;28.70;13.00;;;;;;;1.55;100.00;97157.36;109607;1252;71486;-72
2023/01/17 02:14:54;;;;;;;26.00;12.60;;;;;;;1.56;100.00;97152.59;109624;1252;66674;-71
2023/01/17 02:17:51;;;;;;;26.00;11.70;;;;;;;1.56;100.00;97141.91;109602;1253;73956;-71
2023/01/17 02:21:03;;;;;;;29.00;13.80;;;;;;;1.58;100.00;97129.81;109578;1252;58476;-73
2023/01/17 02:24:31;;;;;;;27.20;12.40;;;;;;;1.60;100.00;97119.00;109637;1253;58076;-70
2023/01/17 02:27:46;;;;;;;28.70;12.70;;;;;;;1.61;100.00;97109.30;109591;1252;73271;-70
2023/01/17 02:31:03;;;;;;;27.60;11.90;;;;;;;1.61;100.00;97105.68;109598;1251;68144;-70
2023/01/17 02:34:23;;;;;;;25.00;12.20;;;;;;;1.61;100.00;97102.71;109606;1253;73378;-71
2023/01/17 02:37:33;;;;;;;28.60;12.00;;;;;;;1.63;100.00;97105.14;109536;1256;59449;-71
2023/01/17 02:40:51;;;;;;;24.80;11.50;;;;;;;1.64;100.00;97103.96;109610;1252;58739;-70
2023/01/17 02:43:40;;;;;;;24.20;10.90;;;;;;;1.62;100.00;97099.58;109566;1252;73027;-71
2023/01/17 02:46:28;;;;;;;24.70;10.30;;;;;;;1.59;100.00;97094.79;108876;1254;1002367;-69
2023/01/17 02:49:20;;;;;;;25.40;11.70;;;;;;;1.59;100.00;97098.13;109548;1252;72356;-69
2023/01/17 02:52:40;;;;;;;20.90;9.00;;;;;;;1.58;100.00;97091.20;109528;1252;57385;-70
2023/01/17 02:55:50;;;;;;;25.40;11.40;;;;;;;1.55;100.00;97091.11;109343;1253;225062;-71
2023/01/17 02:59:04;;;;;;;22.80;10.60;;;;;;;1.49;100.00;97086.45;109533;1253;72848;-72
2023/01/17 03:02:16;;;;;;;22.30;11.30;;;;;;;1.47;100.00;97085.66;109561;1252;65417;-71
2023/01/17 03:05:50;;;;;;;25.60;11.60;;;;;;;1.46;100.00;97078.13;109499;1254;71426;-70
2023/01/17 03:08:46;;;;;;;27.30;13.50;;;;;;;1.46;100.00;97074.27;109425;1254;58437;-70
2023/01/17 03:11:34;;;;;;;24.40;12.50;;;;;;;1.43;100.00;97067.39;109401;1254;59983;-71
2023/01/17 03:14:22;;;;;;;24.40;11.90;;;;;;;1.43;100.00;97068.97;109530;1253;73677;-70
2023/01/17 03:17:11;;;;;;;28.30;12.30;;;;;;;1.42;100.00;97069.89;109538;1253;65445;-71
2023/01/17 03:19:59;;;;;;;22.80;12.20;;;;;;;1.42;100.00;97067.62;109524;1254;71109;-72
2023/01/17 03:22:47;;;;;;;21.80;10.60;;;;;;;1.42;100.00;97070.64;109555;1252;58559;-72
2023/01/17 03:25:35;;;;;;;23.80;10.90;;;;;;;1.42;100.00;97064.00;109522;1253;59450;-72
2023/01/17 03:28:23;;;;;;;23.00;10.60;;;;;;;1.41;100.00;97055.50;109523;1255;73734;-71
2023/01/17 03:31:15;;;;;;;21.40;10.10;;;;;;;1.39;100.00;97047.80;109540;1253;68901;-71
2023/01/17 03:34:03;;;;;;;23.40;11.40;;;;;;;1.39;100.00;97049.90;109506;1254;72410;-72
2023/01/17 03:36:51;;;;;;;22.70;12.10;;;;;;;1.42;100.00;97051.09;109485;1253;59844;-72
2023/01/17 03:39:39;;;;;;;21.30;10.00;;;;;;;1.44;100.00;97039.31;109540;1253;59991;-71
2023/01/17 03:42:27;;;;;;;20.50;10.80;;;;;;;1.45;100.00;97036.41;109535;1254;71555;-72
2023/01/17 03:45:15;;;;;;;20.10;10.00;;;;;;;1.45;100.00;97029.27;109551;1254;69616;-71
2023/01/17 03:48:03;;;;;;;22.40;10.40;;;;;;;1.44;100.00;97017.46;109522;1254;72784;-74
2023/01/17 03:50:51;;;;;;;16.40;8.00;;;;;;;1.46;100.00;97016.80;109516;1254;58479;-72
2023/01/17 03:53:39;;;;;;;18.40;9.10;;;;;;;1.45;100.00;97018.78;109511;1254;60277;-71
2023/01/17 03:56:27;;;;;;;15.70;8.30;;;;;;;1.42;100.00;97015.20;109496;1253;71819;-72
2023/01/17 03:59:15;;;;;;;16.80;7.50;;;;;;;1.44;100.00;97002.95;109515;1254;65744;-71
2023/01/17 04:02:03;;;;;;;16.90;8.70;;;;;;;1.43;100.00;96992.91;109480;1253;72466;-70
2023/01/17 04:04:51;;;;;;;18.40;8.90;;;;;;;1.41;100.00;96996.08;109512;1254;58464;-69
2023/01/17 04:07:39;;;;;;;20.30;10.40;;;;;;;1.43;100.00;96991.92;109512;1253;60029;-70
2023/01/17 04:10:27;;;;;;;15.80;8.00;;;;;;;1.43;100.00;96991.73;109537;1253;72718;-69
2023/01/17 04:13:15;;;;;;;18.50;9.80;;;;;;;1.42;100.00;96986.18;109522;1254;67874;-70
2023/01/17 04:16:04;;;;;;;17.50;8.90;;;;;;;1.41;100.00;96980.88;109546;1252;71110;-71
2023/01/17 04:18:52;;;;;;;17.30;8.80;;;;;;;1.41;100.00;96977.27;109395;1253;57292;-71
2023/01/17 04:21:42;;;;;;;18.60;8.70;;;;;;;1.42;100.00;96973.98;108504;1253;1015601;-70
2023/01/17 04:24:30;;;;;;;17.30;9.30;;;;;;;1.44;100.00;96966.67;109430;1253;73074;-70
2023/01/17 04:27:18;;;;;;;16.90;8.30;;;;;;;1.44;100.00;96961.92;109579;1253;66766;-70
2023/01/17 04:30:06;;;;;;;17.60;9.50;;;;;;;1.45;100.00;96954.35;109501;1253;72742;-71
2023/01/17 04:32:55;;;;;;;17.20;9.20;;;;;;;1.44;100.00;96945.69;109493;1253;59987;-71
2023/01/17 04:35:43;;;;;;;16.20;8.50;;;;;;;1.45;100.00;96936.90;109529;1253;60438;-71
2023/01/17 04:38:31;;;;;;;15.40;8.30;;;;;;;1.46;100.00;96935.16;109536;1254;74261;-70
2023/01/17 04:41:19;;;;;;;16.50;8.70;;;;;;;1.46;100.00;96937.80;109544;1253;67395;-71
2023/01/17 04:44:06;;;;;;;16.20;8.70;;;;;;;1.45;100.00;96932.44;109523;1253;72469;-71
2023/01/17 04:46:54;;;;;;;15.10;7.30;;;;;;;1.48;100.00;96936.61;109472;1253;59481;-71
2023/01/17 04:49:42;;;;;;;17.30;8.80;;;;;;;1.47;100.00;96939.48;109570;1252;61068;-71
2023/01/17 04:52:31;;;;;;;15.80;8.60;;;;;;;1.42;100.00;96936.25;109480;1253;71822;-70
2023/01/17 04:55:19;;;;;;;15.90;7.60;;;;;;;1.45;100.00;96933.54;109578;1252;68892;-70
2023/01/17 04:58:08;;;;;;;16.20;8.00;;;;;;;1.49;100.00;96935.83;109573;1253;72634;-70
2023/01/17 05:01:02;;;;;;;16.60;8.90;;;;;;;1.49;100.00;96933.16;109574;1253;58812;-70
2023/01/17 05:03:51;;;;;;;15.20;7.80;;;;;;;1.50;100.00;96928.58;109583;1252;58717;-69
2023/01/17 05:06:38;;;;;;;15.20;7.90;;;;;;;1.49;100.00;96930.02;109593;1252;72107;-71
2023/01/17 05:09:26;;;;;;;13.70;7.10;;;;;;;1.52;100.00;96924.30;109602;1252;69160;-71
2023/01/17 05:12:14;;;;;;;15.70;8.50;;;;;;;1.53;100.00;96921.59;109557;1252;73471;-71
2023/01/17 05:15:02;;;;;;;15.80;7.80;;;;;;;1.55;100.00;96916.59;109576;1252;57543;-70
2023/01/17 05:17:52;;;;;;;15.60;7.50;;;;;;;1.56;100.00;96916.11;109549;1252;60097;-72
2023/01/17 05:20:40;;;;;;;17.10;8.60;;;;;;;1.58;100.00;96918.80;109589;1253;73795;-72
2023/01/17 05:23:28;;;;;;;14.90;8.00;;;;;;;1.58;100.00;96912.09;109475;1252;66640;-71
2023/01/17 05:26:16;;;;;;;15.80;8.90;;;;;;;1.60;100.00;96913.25;109580;1252;72629;-71
2023/01/17 05:29:04;;;;;;;14.60;7.50;;;;;;;1.60;100.00;96909.34;109532;1252;58436;-71
2023/01/17 05:31:52;;;;;;;15.80;7.80;;;;;;;1.60;100.00;96896.89;109596;1253;59955;-72
2023/01/17 05:34:40;;;;;;;16.50;8.30;;;;;;;1.59;100.00;96897.47;109602;1253;74475;-72
2023/01/17 05:37:28;;;;;;;14.10;7.50;;;;;;;1.58;100.00;96886.77;109617;1252;65795;-70
2023/01/17 05:40:36;;;;;;;16.00;8.70;;;;;;;1.57;100.00;96887.68;109585;1254;71934;-71
2023/01/17 05:43:28;;;;;;;16.20;8.30;;;;;;;1.58;100.00;96884.63;109545;1252;59503;-71
2023/01/17 05:46:16;;;;;;;14.90;8.10;;;;;;;1.63;100.00;96880.91;109576;1253;60086;-71
2023/01/17 05:49:04;;;;;;;16.70;7.50;;;;;;;1.64;100.00;96877.45;109558;1251;71776;-70
2023/01/17 05:51:52;;;;;;;13.80;7.70;;;;;;;1.67;100.00;96879.08;109444;1252;68024;-71
2023/01/17 05:54:41;;;;;;;16.60;8.40;;;;;;;1.67;100.00;96884.29;109496;1252;70651;-68
2023/01/17 05:57:29;;;;;;;18.00;8.60;;;;;;;1.70;100.00;96886.48;109508;1252;58434;-70
2023/01/17 06:00:18;;;;;;;15.40;8.60;;;;;;;1.70;100.00;96891.41;109563;1253;60039;-69
2023/01/17 06:03:05;;;;;;;15.20;6.80;;;;;;;1.69;100.00;96882.42;109535;1252;72857;-70
2023/01/17 06:05:54;;;;;;;16.50;9.30;;;;;;;1.62;100.00;96883.39;109500;1253;67570;-70
2023/01/17 06:08:41;;;;;;;14.20;8.10;;;;;;;1.61;100.00;96885.46;109519;1252;71709;-69
2023/01/17 06:11:29;;;;;;;14.60;8.20;;;;;;;1.63;100.00;96885.63;109497;1252;58410;-71
2023/01/17 06:14:17;;;;;;;14.90;7.80;;;;;;;1.60;100.00;96878.67;109514;1252;61071;-70
2023/01/17 06:17:05;;;;;;;13.90;7.40;;;;;;;1.62;100.00;96875.59;109487;1252;72122;-70
2023/01/17 06:19:53;;;;;;;12.20;7.00;;;;;;;1.64;100.00;96874.37;109515;1251;67620;-70
2023/01/17 06:22:41;;;;;;;12.40;6.60;;;;;;;1.62;100.00;96875.39;109558;1252;71999;-71
2023/01/17 06:25:35;;;;;;;11.40;6.10;;;;;;;1.60;100.00;96870.82;109489;1252;58718;-69
2023/01/17 06:28:23;;;;;;;11.90;5.70;;;;;;;1.57;100.00;96870.79;109560;1253;61167;-70
2023/01/17 06:31:11;;;;;;;11.40;5.80;;;;;;;1.58;100.00;96869.13;109548;1252;71591;-72
2023/01/17 06:34:02;;;;;;;12.50;5.70;;;;;;;1.58;100.00;96864.05;109533;1252;69555;-71
2023/01/17 06:36:50;;;;;;;12.40;7.00;;;;;;;1.57;100.00;96870.06;109510;1252;72591;-72
2023/01/17 06:39:38;;;;;;;13.00;7.00;;;;;;;1.57;100.00;96871.13;109528;1252;58416;-71
2023/01/17 06:42:26;;;;;;;12.40;6.40;;;;;;;1.56;100.00;96870.34;109560;1252;61040;-70
2023/01/17 06:45:14;;;;;;;12.80;6.60;;;;;;;1.57;100.00;96877.08;109538;1252;71905;-72
2023/01/17 06:48:03;;;;;;;13.50;7.40;;;;;;;1.59;100.00;96873.19;109557;1251;66409;-70
2023/01/17 06:50:52;;;;;;;13.40;6.60;;;;;;;1.59;100.00;96876.14;109560;1251;72414;-73
2023/01/17 06:53:40;;;;;;;13.70;7.90;;;;;;;1.59;100.00;96880.68;109550;1253;58469;-73
2023/01/17 06:56:31;;;;;;;16.30;8.30;;;;;;;1.60;100.00;96884.47;109567;1252;60323;-70
2023/01/17 06:59:20;;;;;;;14.70;8.30;;;;;;;1.58;100.00;96878.73;109402;1253;73079;-71
2023/01/17 07:02:10;;;;;;;13.60;7.10;;;;;;;1.59;100.00;96879.73;109591;1252;67626;-70
2023/01/17 07:04:58;;;;;;;16.20;8.30;;;;;;;1.57;100.00;96873.38;109500;1251;71479;-71
2023/01/17 07:07:46;;;;;;;15.80;9.50;;;;;;;1.58;100.00;96873.48;109520;1252;58544;-71
2023/01/17 07:10:34;;;;;;;17.50;9.60;;;;;;;1.58;100.00;96882.24;109602;1252;58539;-77
2023/01/17 07:13:22;;;;;;;18.60;10.30;;;;;;;1.57;100.00;96888.05;109535;1252;71989;-73
2023/01/17 07:16:10;;;;;;;16.30;9.40;;;;;;;1.58;100.00;96884.30;109548;1252;66690;-74
2023/01/17 07:18:58;;;;;;;16.50;9.10;;;;;;;1.58;100.00;96870.90;109478;1252;72611;-75
2023/01/17 07:21:52;;;;;;;17.40;10.10;;;;;;;1.56;100.00;96866.84;109493;1251;59627;-76
2023/01/17 07:24:40;;;;;;;18.30;10.60;;;;;;;1.62;100.00;96878.30;109423;1252;61119;-74
2023/01/17 07:27:29;;;;;;;21.00;11.50;;;;;;;1.63;100.00;96872.29;109541;1252;73150;-73
2023/01/17 07:30:17;;;;;;;22.00;11.60;;;;;;;1.63;100.00;96871.58;109539;1252;65611;-73
2023/01/17 07:33:07;;;;;;;20.40;12.30;;;;;;;1.67;100.00;96867.77;109504;1252;71242;-73
2023/01/17 07:35:55;;;;;;;19.30;10.30;;;;;;;1.67;100.00;96871.57;109515;1252;58393;-73
2023/01/17 07:38:45;;;;;;;21.90;11.10;;;;;;;1.68;100.00;96865.52;109537;1253;60090;-73
2023/01/17 07:41:39;;;;;;;23.90;12.20;;;;;;;1.67;100.00;96868.59;109527;1253;71332;-74
2023/01/17 07:44:28;;;;;;;19.80;10.60;;;;;;;1.68;100.00;96866.55;109483;1252;67743;-74
2023/01/17 07:47:20;;;;;;;22.50;11.60;;;;;;;1.71;100.00;96862.84;109520;1252;73098;-74
2023/01/17 07:50:12;;;;;;;22.00;11.60;;;;;;;1.74;100.00;96862.98;109478;1252;57424;-74
2023/01/17 07:53:02;;;;;;;26.20;12.20;;;;;;;1.73;100.00;96854.98;109365;1252;60793;-77
2023/01/17 07:56:07;;;;;;;23.10;11.70;;;;;;;1.75;100.00;96853.36;109427;1252;72448;-73
2023/01/17 07:58:55;;;;;;;26.00;12.80;;;;;;;1.78;100.00;96845.92;109586;1252;66402;-73
2023/01/17 08:01:43;;;;;;;24.00;12.50;;;;;;;1.81;100.00;96840.96;109453;1251;73324;-74
2023/01/17 08:04:34;;;;;;;25.80;13.20;;;;;;;1.82;100.00;96840.70;109531;1252;57623;-72
2023/01/17 08:07:21;;;;;;;26.90;12.40;;;;;;;1.84;100.00;96844.31;109604;1253;61480;-75
2023/01/17 08:10:12;;;;;;;24.80;12.50;;;;;;;1.87;100.00;96837.59;109599;1252;73084;-74
2023/01/17 08:12:59;;;;;;;26.30;13.00;;;;;;;1.89;100.00;96844.73;109570;1252;68011;-73
2023/01/17 08:15:49;;;;;;;25.50;14.70;;;;;;;1.92;100.00;96845.00;109479;1252;71131;-72
2023/01/17 08:18:37;;;;;;;26.00;13.50;;;;;;;1.94;100.00;96842.02;109521;1251;59755;-72
2023/01/17 08:21:25;;;;;;;27.80;14.00;;;;;;;1.97;100.00;96837.36;109451;1253;58852;-74
2023/01/17 08:24:14;;;;;;;27.80;13.70;;;;;;;2.00;100.00;96841.83;109410;1252;71965;-71
2023/01/17 08:27:02;;;;;;;28.70;14.70;;;;;;;2.04;100.00;96839.15;109360;1252;69320;-74
2023/01/17 08:29:50;;;;;;;25.80;13.80;;;;;;;2.07;100.00;96839.02;109457;1252;72345;-74
2023/01/17 08:32:39;;;;;;;25.60;13.20;;;;;;;2.12;100.00;96839.98;109507;1251;58874;-72
2023/01/17 08:35:28;;;;;;;27.90;13.60;;;;;;;2.16;100.00;96840.80;109473;1252;60307;-73
2023/01/17 08:38:16;;;;;;;27.40;14.00;;;;;;;2.20;100.00;96845.16;109412;1252;72415;-72
2023/01/17 08:41:11;;;;;;;28.30;14.10;;;;;;;2.26;100.00;96841.65;109595;1251;67673;-73
2023/01/17 08:43:59;;;;;;;22.20;11.30;;;;;;;2.30;100.00;96841.11;109536;1252;72467;-71
2023/01/17 08:46:54;;;;;;;26.40;14.10;;;;;;;2.31;100.00;96836.96;109543;1252;58472;-74
2023/01/17 08:49:42;;;;;;;26.10;14.20;;;;;;;2.39;100.00;96839.35;109547;1252;60407;-72
2023/01/17 08:52:33;;;;;;;24.30;13.40;;;;;;;2.41;100.00;96837.81;109555;1252;73033;-72
2023/01/17 08:55:21;;;;;;;23.00;13.50;;;;;;;2.44;100.00;96832.24;109514;1252;69040;-74
2023/01/17 08:58:09;;;;;;;26.00;13.60;;;;;;;2.42;100.00;96837.67;109544;1251;72562;-72
2023/01/17 09:01:02;;;;;;;26.60;14.30;;;;;;;2.51;100.00;96834.66;109526;1252;58466;-72
2023/01/17 09:03:50;;;;;;;24.40;13.50;;;;;;;2.57;100.00;96840.11;109577;1252;60103;-71
2023/01/17 09:06:44;;;;;;;26.60;13.00;;;;;;;2.60;100.00;96834.75;109533;1252;71764;-71
2023/01/17 09:09:32;;;;;;;23.50;12.90;;;;;;;2.65;100.00;96843.88;109536;1252;68663;-71
2023/01/17 09:12:21;;;;;;;24.30;13.40;;;;;;;2.66;100.00;96850.63;109545;1252;71171;-72
2023/01/17 09:15:09;;;;;;;23.80;13.10;;;;;;;2.66;100.00;96859.34;109486;1252;60079;-71
2023/01/17 09:17:57;;;;;;;23.70;12.90;;;;;;;2.66;100.00;96858.28;109517;1252;60224;-74
2023/01/17 09:20:45;;;;;;;24.50;12.70;;;;;;;2.67;100.00;96857.84;109572;1253;71629;-71
2023/01/17 09:23:36;;;;;;;23.00;13.50;;;;;;;2.68;100.00;96860.90;108801;1252;1002392;-73
2023/01/17 09:26:28;;;;;;;26.70;14.20;;;;;;;2.65;100.00;96864.55;109533;1252;73689;-71
2023/01/17 09:29:17;;;;;;;25.30;12.80;;;;;;;2.63;100.00;96861.04;109518;1252;57884;-73
2023/01/17 09:32:05;;;;;;;23.60;12.30;;;;;;;2.62;100.00;96861.52;109544;1251;58877;-72
2023/01/17 09:34:56;;;;;;;24.60;13.40;;;;;;;2.63;100.00;96861.54;109535;1251;72855;-69
2023/01/17 09:37:47;;;;;;;26.60;14.10;;;;;;;2.66;100.00;96861.45;109598;1252;65436;-70
2023/01/17 09:40:44;;;;;;;25.70;14.90;;;;;;;2.67;100.00;96855.23;109513;1251;70080;-73
2023/01/17 09:43:44;;;;;;;26.60;15.30;;;;;;;2.70;100.00;96855.46;109548;1252;57335;-71
2023/01/17 09:46:41;;;;;;;24.70;14.60;;;;;;;2.70;100.00;96853.14;109583;1251;60409;-73
2023/01/17 09:49:43;;;;;;;27.00;14.10;;;;;;;2.74;100.00;96844.97;109412;1251;73368;-71
2023/01/17 09:52:36;;;;;;;27.40;14.40;;;;;;;2.75;100.00;96856.54;109486;1254;68673;-72
2023/01/17 09:55:24;;;;;;;27.70;14.50;;;;;;;2.76;100.00;96853.66;109512;1252;72383;-72
2023/01/17 09:58:20;;;;;;;30.00;15.70;;;;;;;2.80;100.00;96858.55;109503;1251;57330;-72
2023/01/17 10:01:38;;;;;;;26.90;15.20;;;;;;;2.84;100.00;96863.26;109519;1252;60277;-73
2023/01/17 10:04:57;;;;;;;23.80;12.10;;;;;;;2.86;100.00;96863.73;109506;1252;72773;-72
2023/01/17 10:08:03;;;;;;;26.40;13.90;;;;;;;2.86;99.71;96862.55;109547;1252;67634;-73
2023/01/17 10:11:41;;;;;;;29.80;14.10;;;;;;;2.85;99.47;96861.16;109555;1251;72426;-73
2023/01/17 10:15:36;;;;;;;28.50;14.00;;;;;;;2.82;99.63;96864.61;109568;1253;57327;-74
2023/01/17 10:19:06;;;;;;;28.00;13.90;;;;;;;2.85;99.27;96864.02;109168;1256;60373;-74
2023/01/17 10:22:10;;;;;;;26.50;14.80;;;;;;;2.88;99.19;96868.48;109146;1257;74151;-73
2023/01/17 10:25:41;;;;;;;26.80;14.50;;;;;;;2.89;98.94;96865.88;109128;1257;69012;-73
2023/01/17 10:28:32;;;;;;;27.50;15.40;;;;;;;2.93;99.18;96864.80;109141;1256;73486;-73
2023/01/17 10:31:28;;;;;;;31.20;14.60;;;;;;;2.94;98.86;96867.73;109134;1256;58670;-74
2023/01/17 10:34:35;;;;;;;27.00;14.40;;;;;;;2.93;98.64;96866.60;109088;1257;59077;-73
2023/01/17 10:37:25;;;;;;;27.90;14.30;;;;;;;2.93;98.77;96870.77;109102;1256;73941;-73
2023/01/17 10:40:49;;;;;;;24.50;13.90;;;;;;;2.96;98.89;96868.70;109178;1256;68238;-74
2023/01/17 10:43:54;;;;;;;24.30;13.90;;;;;;;2.97;97.97;96877.38;109100;1256;72320;-73
2023/01/17 10:46:59;;;;;;;23.40;12.20;;;;;;;2.96;97.16;96871.02;109148;1256;57420;-74
2023/01/17 10:49:52;;;;;;;27.70;13.90;;;;;;;2.98;97.28;96867.48;109112;1256;59979;-74
2023/01/17 10:52:57;;;;;;;23.00;12.30;;;;;;;3.03;97.44;96863.54;109091;1257;71476;-74
2023/01/17 10:55:54;;;;;;;25.80;13.50;;;;;;;3.07;97.16;96864.88;109436;1251;68613;-75
2023/01/17 10:58:43;;;;;;;24.60;12.80;;;;;;;3.10;96.51;96866.16;109507;1252;71386;-75
2023/01/17 11:01:32;;;;;;;25.80;13.60;;;;;;;3.13;96.54;96866.58;109541;1251;57655;-79
2023/01/17 11:04:36;;;;;;;26.70;13.20;;;;;;;3.15;96.41;96865.38;109568;1251;59400;-74
2023/01/17 11:07:28;;;;;;;25.00;13.60;;;;;;;3.16;96.35;96861.52;109555;1251;73005;-75
2023/01/17 11:10:49;;;;;;;24.60;13.30;;;;;;;3.17;96.05;96856.66;109592;1252;68666;-74
2023/01/17 11:13:37;;;;;;;27.00;13.70;;;;;;;3.17;95.77;96857.23;109586;1252;72629;-75
2023/01/17 11:16:30;;;;;;;23.50;13.30;;;;;;;3.20;95.72;96853.27;109510;1252;58071;-76
2023/01/17 11:19:38;;;;;;;24.80;13.10;;;;;;;3.23;95.51;96847.68;109553;1252;59982;-75
2023/01/17 11:22:26;;;;;;;21.60;12.80;;;;;;;3.31;95.15;96847.25;109491;1251;73181;-73
2023/01/17 11:25:22;;;;;;;25.00;13.60;;;;;;;3.32;94.66;96848.57;109531;1252;67638;-74
2023/01/17 11:28:34;;;;;;;21.20;11.60;;;;;;;3.33;94.72;96855.64;109543;1252;72314;-72
2023/01/17 11:31:25;;;;;;;23.20;13.40;;;;;;;3.27;94.28;96853.11;109486;1252;59740;-75
2023/01/17 11:34:17;;;;;;;24.80;12.80;;;;;;;3.24;94.50;96842.38;109517;1251;59022;-75
2023/01/17 11:37:18;;;;;;;21.90;11.90;;;;;;;3.30;94.92;96838.93;109554;1253;72050;-74
2023/01/17 11:40:16;;;;;;;23.10;11.40;;;;;;;3.31;94.60;96836.22;109589;1252;67790;-74
2023/01/17 11:43:26;;;;;;;24.20;12.80;;;;;;;3.32;94.53;96837.73;109552;1252;73006;-78
2023/01/17 11:46:17;;;;;;;24.50;13.30;;;;;;;3.28;94.19;96837.58;109510;1251;57399;-78
2023/01/17 11:49:22;;;;;;;25.70;13.20;;;;;;;3.29;94.35;96828.34;109513;1251;60691;-75
2023/01/17 11:52:30;;;;;;;24.40;12.90;;;;;;;3.30;94.68;96831.08;109481;1252;71509;-75
2023/01/17 11:55:21;;;;;;;23.10;12.70;;;;;;;3.29;94.45;96831.70;109515;1252;67894;-77
2023/01/17 11:58:14;;;;;;;24.40;13.00;;;;;;;3.26;94.45;96838.14;109577;1252;71712;-75
2023/01/17 12:01:45;;;;;;;20.10;11.00;;;;;;;3.25;94.56;96841.20;109568;1252;57852;-75
2023/01/17 12:04:38;;;;;;;25.40;13.10;;;;;;;3.22;94.21;96836.24;109565;1251;60402;-75
2023/01/17 12:07:56;;;;;;;22.80;12.90;;;;;;;3.23;94.14;96840.13;109537;1252;71856;-77
2023/01/17 12:11:17;;;;;;;21.70;11.80;;;;;;;3.22;94.07;96837.27;109552;1251;67619;-73
2023/01/17 12:14:26;;;;;;;21.90;11.90;;;;;;;3.24;93.63;96835.34;109575;1252;72606;-74
2023/01/17 12:17:57;;;;;;;18.20;10.50;;;;;;;3.28;93.84;96834.28;109557;1251;57623;-74
2023/01/17 12:22:01;;;;;;;21.00;11.20;;;;;;;3.27;93.41;96839.10;109553;1252;60084;-73
2023/01/17 12:25:29;;;;;;;22.90;12.10;;;;;;;3.26;92.92;96848.86;108878;1260;70609;-76
2023/01/17 12:28:25;;;;;;;21.20;11.00;;;;;;;3.30;93.17;96847.70;108874;1261;66374;-73
2023/01/17 12:32:12;;;;;;;20.10;10.30;;;;;;;3.33;93.00;96854.28;108787;1260;72824;-74
2023/01/17 12:35:12;;;;;;;18.30;9.90;;;;;;;3.27;92.63;96855.95;108902;1260;57880;-74
2023/01/17 12:38:07;;;;;;;17.40;9.20;;;;;;;3.24;92.32;96856.33;108858;1260;58743;-73
2023/01/17 12:41:01;;;;;;;17.60;8.90;;;;;;;3.24;92.24;96852.01;108886;1260;72381;-73
2023/01/17 12:43:56;;;;;;;18.10;9.20;;;;;;;3.26;92.52;96855.69;108887;1260;66530;-75
2023/01/17 12:46:58;;;;;;;17.60;9.30;;;;;;;3.28;92.59;96860.90;108814;1260;71387;-73
2023/01/17 12:50:20;;;;;;;18.80;9.70;;;;;;;3.26;92.60;96864.59;108814;1260;57856;-74
2023/01/17 12:53:31;;;;;;;16.10;8.60;;;;;;;3.21;92.75;96861.70;108815;1260;58759;-73
2023/01/17 12:56:33;;;;;;;17.00;8.90;;;;;;;3.16;93.06;96868.84;109377;1252;71932;-73
2023/01/17 12:59:50;;;;;;;17.30;9.50;;;;;;;3.18;93.40;96871.52;109507;1252;67674;-73
2023/01/17 13:03:11;;;;;;;17.80;9.50;;;;;;;3.21;93.45;96876.44;109503;1253;73574;-73
2023/01/17 13:06:01;;;;;;;19.90;9.60;;;;;;;3.22;93.56;96881.74;109456;1252;57933;-73
2023/01/17 13:08:54;;;;;;;17.40;8.90;;;;;;;3.23;93.56;96889.57;109482;1252;61193;-73
2023/01/17 13:11:51;;;;;;;17.50;8.30;;;;;;;3.23;93.50;96888.35;109590;1253;71127;-75
2023/01/17 13:14:40;;;;;;;16.60;8.30;;;;;;;3.26;93.55;96891.03;109261;1253;67917;-77
2023/01/17 13:17:55;;;;;;;16.80;9.30;;;;;;;3.28;93.79;96892.10;109473;1252;73695;-74
2023/01/17 13:21:13;;;;;;;18.20;9.30;;;;;;;3.29;93.82;96887.73;109481;1252;58546;-74
2023/01/17 13:24:24;;;;;;;16.10;8.70;;;;;;;3.27;93.57;96895.33;109530;1253;58765;-75
2023/01/17 13:27:20;;;;;;;18.50;8.80;;;;;;;3.25;93.52;96907.58;109485;1253;72681;-74
2023/01/17 13:30:44;;;;;;;18.80;9.30;;;;;;;3.26;93.30;96914.00;109500;1252;67974;-77
2023/01/17 13:34:20;;;;;;;15.60;7.40;;;;;;;3.25;93.56;96912.13;109507;1253;71851;-75
2023/01/17 13:37:28;;;;;;;18.40;9.00;;;;;;;3.24;93.91;96923.81;109490;1252;57811;-72
2023/01/17 13:41:01;;;;;;;17.40;8.40;;;;;;;3.21;93.52;96926.41;109572;1252;58777;-76
2023/01/17 13:47:03;;;;;;;16.30;8.20;;;;;;;3.15;93.22;96935.45;109562;1251;69009;-75
2023/01/17 13:49:55;;;;;;;14.60;7.20;;;;;;;3.15;93.43;96934.90;109549;1252;72374;-75
2023/01/17 13:52:45;;;;;;;11.80;5.70;;;;;;;3.15;93.35;96933.66;109570;1252;57988;-76
2023/01/17 13:55:52;;;;;;;14.50;7.10;;;;;;;3.12;92.97;96942.48;109583;1251;58987;-76
2023/01/17 13:58:48;;;;;;;15.80;7.50;;;;;;;3.14;93.31;96945.09;109615;1251;71865;-75
2023/01/17 14:01:55;;;;;;;13.90;6.20;;;;;;;3.15;92.96;96950.40;109609;1253;67673;-76
2023/01/17 14:05:40;;;;;;;13.80;7.10;;;;;;;3.16;92.79;96953.20;109505;1251;71455;-79
2023/01/17 14:08:38;;;;;;;14.20;6.20;;;;;;;3.17;93.03;96954.52;109528;1252;57292;-78
2023/01/17 14:11:26;;;;;;;13.70;7.00;;;;;;;3.17;92.71;96960.46;109442;1252;58709;-77
2023/01/17 14:14:40;;;;;;;13.30;6.80;;;;;;;3.15;92.54;96958.88;109579;1252;72750;-79
2023/01/17 14:17:47;;;;;;;12.80;6.30;;;;;;;3.15;92.57;96967.44;109572;1251;67867;-76
2023/01/17 14:20:49;;;;;;;13.90;7.10;;;;;;;3.14;92.57;96966.65;109355;1253;71420;-76
2023/01/17 14:24:02;;;;;;;12.40;6.30;;;;;;;3.16;92.63;96968.91;109533;1252;57209;-76
2023/01/17 14:27:13;;;;;;;12.60;6.60;;;;;;;3.17;92.13;96969.70;109498;1252;60449;-77
2023/01/17 14:30:06;;;;;;;13.80;7.00;;;;;;;3.18;92.41;96973.27;109389;1251;70515;-76
2023/01/17 14:33:00;;;;;;;14.40;7.30;;;;;;;3.20;92.20;96972.77;109533;1252;66860;-77
2023/01/17 14:35:59;;;;;;;14.00;7.50;;;;;;;3.18;91.79;96982.40;109543;1251;72892;-76
2023/01/17 14:38:47;;;;;;;15.90;7.70;;;;;;;3.14;91.88;96979.95;109558;1252;58416;-75
2023/01/17 14:41:36;;;;;;;14.00;7.20;;;;;;;3.16;91.92;96990.48;109637;1251;60045;-78
2023/01/17 14:44:24;;;;;;;17.90;7.80;;;;;;;3.14;91.90;96997.39;109599;1252;72815;-77
2023/01/17 14:47:14;;;;;;;17.20;8.30;;;;;;;3.11;92.05;96999.86;109598;1251;67700;-76
2023/01/17 14:50:26;;;;;;;15.30;7.60;;;;;;;3.06;92.22;97000.19;109564;1253;72724;-78